Time;durP1;ratioP1;P1;durP2;ratioP2;P2;SDS_P1;SDS_P2;PMS_P1;PMS_P2;Temp;Humidity;BMP_temperature;BMP_pressure;BME280_temperature;BME280_humidity;BME280_pressure;Samples;Min_cycle;Max_cycle;Signal;HPM_P1;HPM_P2
2021/01/24 00:02:22;;;;;;;3.80;2.83;;;1.60;99.90;;;;;;5020311;28;20242;-79
2021/01/24 00:04:47;;;;;;;2.50;2.30;;;1.60;99.90;;;;;;5024252;28;20220;-79
2021/01/24 00:07:14;;;;;;;1.77;1.67;;;1.70;99.90;;;;;;5023781;28;20179;-79
2021/01/24 00:09:39;;;;;;;2.40;2.13;;;1.60;99.90;;;;;;5024005;28;20229;-78
2021/01/24 00:12:05;;;;;;;2.10;2.00;;;1.60;99.90;;;;;;5024472;28;20178;-79
2021/01/24 00:14:31;;;;;;;3.87;2.60;;;1.60;99.90;;;;;;5025832;28;20206;-78
2021/01/24 00:16:57;;;;;;;2.10;2.00;;;1.60;99.90;;;;;;5043940;28;20178;-79
2021/01/24 00:19:26;;;;;;;2.33;2.13;;;1.60;99.90;;;;;;5041317;28;20242;-79
2021/01/24 00:21:52;;;;;;;1.97;1.80;;;1.60;99.90;;;;;;5001459;28;20221;-79
2021/01/24 00:24:18;;;;;;;2.23;2.03;;;1.60;99.90;;;;;;5042718;28;20194;-79
2021/01/24 00:26:44;;;;;;;1.90;1.80;;;1.60;99.90;;;;;;5044013;28;20175;-79
2021/01/24 00:29:09;;;;;;;2.00;1.90;;;1.70;99.90;;;;;;5016252;28;20209;-79
2021/01/24 00:31:35;;;;;;;2.10;1.57;;;1.70;99.90;;;;;;5042027;28;20613;-79
2021/01/24 00:34:01;;;;;;;2.30;1.70;;;1.70;99.90;;;;;;5043065;28;20221;-80
2021/01/24 00:36:27;;;;;;;1.60;1.50;;;1.70;99.90;;;;;;5025885;28;20179;-78
2021/01/24 00:38:52;;;;;;;1.57;1.47;;;1.70;99.90;;;;;;5042533;28;20193;-79
2021/01/24 00:41:18;;;;;;;2.07;1.63;;;1.70;99.90;;;;;;5043027;28;20178;-78
2021/01/24 00:43:44;;;;;;;1.57;1.47;;;1.60;99.90;;;;;;5042195;28;20600;-78
2021/01/24 00:46:10;;;;;;;3.10;1.50;;;1.60;99.90;;;;;;5024669;28;20186;-79
2021/01/24 00:48:39;;;;;;;1.33;1.23;;;1.70;99.90;;;;;;5042951;28;20186;-78
2021/01/24 00:51:09;;;;;;;1.60;1.30;;;1.70;99.90;;;;;;5042651;28;20187;-79
2021/01/24 00:53:34;;;;;;;2.07;1.40;;;1.70;99.90;;;;;;5040421;28;20218;-78
2021/01/24 00:56:00;;;;;;;1.20;1.10;;;1.70;99.90;;;;;;5042602;28;20622;-78
2021/01/24 00:58:26;;;;;;;1.73;1.50;;;1.70;99.90;;;;;;5041055;28;20249;-79
2021/01/24 01:00:52;;;;;;;0.83;0.80;;;1.70;99.90;;;;;;5041574;28;20182;-79
2021/01/24 01:03:18;;;;;;;1.83;1.30;;;1.70;99.90;;;;;;5042501;28;20238;-78
2021/01/24 01:05:47;;;;;;;2.03;0.90;;;1.70;99.90;;;;;;5041585;28;20174;-80
2021/01/24 01:08:13;;;;;;;1.47;0.80;;;1.70;99.90;;;;;;5040558;28;20677;-79
2021/01/24 01:10:40;;;;;;;1.03;0.70;;;1.80;99.90;;;;;;5041783;28;20250;-79
2021/01/24 01:13:07;;;;;;;1.57;1.20;;;1.80;99.90;;;;;;5041299;28;20594;-77
2021/01/24 01:15:33;;;;;;;2.77;0.90;;;1.80;99.90;;;;;;5041318;28;20625;-78
2021/01/24 01:17:58;;;;;;;5.23;0.80;;;1.90;99.90;;;;;;5040638;28;20182;-78
2021/01/24 01:20:24;;;;;;;1.17;0.77;;;1.80;99.90;;;;;;5041591;28;20167;-77
2021/01/24 01:22:51;;;;;;;1.93;0.90;;;1.80;99.90;;;;;;5041772;28;20555;-78
2021/01/24 01:25:16;;;;;;;1.50;0.90;;;1.90;99.90;;;;;;5041200;28;20202;-78
2021/01/24 01:27:42;;;;;;;2.63;1.00;;;1.90;99.90;;;;;;5033906;28;20273;-78
2021/01/24 01:30:09;;;;;;;1.97;1.00;;;1.90;99.90;;;;;;5021881;28;20202;-78
2021/01/24 01:32:35;;;;;;;1.43;0.70;;;1.90;99.90;;;;;;5003011;28;20190;-79
2021/01/24 01:35:03;;;;;;;1.43;0.80;;;1.90;99.90;;;;;;5021010;28;20202;-79
2021/01/24 01:37:29;;;;;;;1.70;0.70;;;1.90;99.90;;;;;;5020214;28;20226;-79
2021/01/24 01:39:56;;;;;;;1.03;0.60;;;1.90;99.90;;;;;;5021039;28;20185;-78
2021/01/24 01:42:22;;;;;;;0.97;0.70;;;1.90;99.90;;;;;;5003639;28;20281;-78
2021/01/24 01:44:48;;;;;;;1.17;0.70;;;1.90;99.90;;;;;;5022277;28;20208;-78
2021/01/24 01:47:22;;;;;;;0.83;0.60;;;1.90;99.90;;;;;;5021486;28;20202;-78
2021/01/24 01:49:48;;;;;;;0.63;0.40;;;1.90;99.90;;;;;;5022327;28;20190;-78
2021/01/24 01:52:14;;;;;;;1.07;0.70;;;1.90;99.90;;;;;;5021420;28;20202;-79
2021/01/24 01:54:43;;;;;;;0.80;0.63;;;1.90;99.90;;;;;;5021678;28;20186;-79
2021/01/24 01:57:09;;;;;;;1.50;0.90;;;1.90;99.90;;;;;;5022466;28;20181;-78
2021/01/24 01:59:34;;;;;;;0.60;0.60;;;1.90;99.90;;;;;;5024531;28;20262;-77
2021/01/24 02:02:22;;;;;;;0.60;0.43;;;1.90;99.90;;;;;;5023395;28;20253;-78
2021/01/24 02:04:58;;;;;;;0.87;0.70;;;1.80;99.90;;;;;;5019616;28;20195;-78
2021/01/24 02:07:36;;;;;;;0.93;0.53;;;1.90;99.90;;;;;;5002407;28;20261;-78
2021/01/24 02:10:41;;;;;;;0.53;0.53;;;1.80;99.90;;;;;;5021439;28;20175;-79
2021/01/24 02:13:41;;;;;;;1.03;0.50;;;1.80;99.90;;;;;;5006051;28;20195;-78
2021/01/24 02:16:09;;;;;;;0.83;0.60;;;1.80;99.90;;;;;;5018959;28;20187;-77
2021/01/24 02:18:39;;;;;;;0.90;0.60;;;1.80;99.90;;;;;;5020402;28;20261;-80
2021/01/24 02:21:24;;;;;;;0.93;0.60;;;1.70;99.90;;;;;;5003763;28;20602;-79
2021/01/24 02:23:53;;;;;;;0.60;0.57;;;1.70;99.90;;;;;;5021507;28;20237;-78
2021/01/24 02:26:31;;;;;;;0.90;0.67;;;1.70;99.90;;;;;;5021197;28;20171;-79
2021/01/24 02:29:05;;;;;;;1.20;0.60;;;1.60;99.90;;;;;;5021019;28;20175;-78
2021/01/24 02:31:32;;;;;;;0.53;0.50;;;1.60;99.90;;;;;;5022356;28;20206;-78
2021/01/24 02:34:00;;;;;;;0.60;0.60;;;1.60;99.90;;;;;;5021427;28;20223;-78
2021/01/24 02:36:27;;;;;;;0.80;0.80;;;1.60;99.90;;;;;;5004878;28;20198;-78
2021/01/24 02:38:54;;;;;;;0.53;0.53;;;1.60;99.90;;;;;;5039572;28;20610;-80
2021/01/24 02:41:21;;;;;;;0.90;0.70;;;1.60;99.90;;;;;;5041417;28;20181;-78
2021/01/24 02:43:48;;;;;;;0.60;0.60;;;1.60;99.90;;;;;;5042455;28;20293;-78
2021/01/24 02:46:16;;;;;;;0.93;0.70;;;1.50;99.90;;;;;;5042068;28;20174;-78
2021/01/24 02:48:44;;;;;;;0.57;0.57;;;1.50;99.90;;;;;;5039280;28;20174;-77
2021/01/24 02:51:14;;;;;;;0.60;0.60;;;1.50;99.90;;;;;;5011353;28;20592;-78
2021/01/24 02:53:41;;;;;;;0.60;0.60;;;1.60;99.90;;;;;;5009235;28;20241;-79
2021/01/24 02:56:07;;;;;;;0.53;0.53;;;1.50;99.90;;;;;;5002861;28;20270;-79
2021/01/24 02:58:34;;;;;;;0.60;0.60;;;1.50;99.90;;;;;;5019642;28;20189;-79
2021/01/24 03:00:59;;;;;;;0.60;0.60;;;1.50;99.90;;;;;;5021487;28;20225;-79
2021/01/24 03:03:26;;;;;;;0.70;0.70;;;1.50;99.90;;;;;;5022661;28;20345;-79
2021/01/24 03:05:51;;;;;;;0.60;0.60;;;1.40;99.90;;;;;;5022486;28;20218;-79
2021/01/24 03:08:19;;;;;;;1.10;0.70;;;1.50;99.90;;;;;;5020635;28;20183;-78
2021/01/24 03:10:45;;;;;;;0.50;0.50;;;1.50;99.90;;;;;;5022596;28;20233;-78
2021/01/24 03:13:18;;;;;;;0.93;0.67;;;1.40;99.90;;;;;;5021028;28;20185;-77
2021/01/24 03:15:46;;;;;;;0.60;0.50;;;1.40;99.90;;;;;;5022777;28;20602;-79
2021/01/24 03:18:17;;;;;;;0.60;0.60;;;1.40;99.90;;;;;;5022616;28;20197;-79
2021/01/24 03:20:44;;;;;;;0.60;0.60;;;1.40;99.90;;;;;;5022764;28;20222;-80
2021/01/24 03:23:12;;;;;;;0.50;0.50;;;1.40;99.90;;;;;;5021590;28;20206;-77
2021/01/24 03:25:39;;;;;;;0.57;0.57;;;1.60;99.90;;;;;;5021872;28;20206;-79
2021/01/24 03:28:07;;;;;;;0.80;0.50;;;1.40;99.90;;;;;;5020923;28;20177;-79
2021/01/24 03:30:33;;;;;;;0.47;0.47;;;1.40;99.90;;;;;;5021771;28;20179;-78
2021/01/24 03:32:59;;;;;;;0.50;0.50;;;1.30;99.90;;;;;;5021359;28;20247;-79
2021/01/24 03:35:25;;;;;;;0.50;0.50;;;1.30;99.90;;;;;;5019937;28;20221;-80
2021/01/24 03:37:51;;;;;;;0.50;0.50;;;1.30;99.90;;;;;;5003096;28;20186;-80
2021/01/24 03:40:17;;;;;;;0.53;0.50;;;1.20;99.90;;;;;;5021290;28;20174;-80
2021/01/24 03:42:42;;;;;;;0.53;0.53;;;1.20;99.90;;;;;;5021214;28;20210;-79
2021/01/24 03:45:09;;;;;;;0.53;0.53;;;1.20;99.90;;;;;;5042340;23;20237;-77
2021/01/24 03:47:34;;;;;;;0.67;0.67;;;1.20;99.90;;;;;;5032649;28;20687;-77
2021/01/24 03:50:00;;;;;;;0.57;0.57;;;1.10;99.90;;;;;;5033310;28;20541;-77
2021/01/24 03:52:26;;;;;;;0.67;0.67;;;1.10;99.90;;;;;;5033243;28;20177;-77
2021/01/24 03:54:52;;;;;;;0.60;0.60;;;1.00;99.90;;;;;;5015214;28;20196;-77
2021/01/24 03:57:18;;;;;;;0.60;0.60;;;1.00;99.90;;;;;;5029510;28;20185;-77
2021/01/24 03:59:49;;;;;;;0.60;0.60;;;1.00;99.90;;;;;;4998995;28;20182;-77
2021/01/24 04:02:15;;;;;;;0.30;0.30;;;1.00;99.90;;;;;;5032931;28;20668;-77
2021/01/24 04:04:41;;;;;;;0.50;0.50;;;1.00;99.90;;;;;;5032392;28;20226;-77
2021/01/24 04:07:06;;;;;;;0.40;0.40;;;1.10;99.90;;;;;;5032586;28;20201;-77
2021/01/24 04:09:32;;;;;;;0.43;0.43;;;1.10;99.90;;;;;;5032758;28;20215;-77
2021/01/24 04:11:58;;;;;;;0.40;0.40;;;1.10;99.90;;;;;;5033133;28;20166;-77
2021/01/24 04:14:24;;;;;;;0.63;0.50;;;1.10;99.90;;;;;;5032997;28;20221;-77
2021/01/24 04:16:50;;;;;;;0.33;0.30;;;1.10;99.90;;;;;;5030421;28;20167;-77
2021/01/24 04:19:16;;;;;;;0.30;0.30;;;1.10;99.90;;;;;;5033072;28;20185;-77
2021/01/24 04:21:41;;;;;;;0.50;0.50;;;1.00;99.90;;;;;;5014988;28;20170;-77
2021/01/24 04:24:08;;;;;;;0.40;0.30;;;1.00;99.90;;;;;;5032941;28;20281;-77
2021/01/24 04:26:33;;;;;;;0.30;0.30;;;1.00;99.90;;;;;;5015035;28;20257;-77
2021/01/24 04:28:59;;;;;;;0.30;0.30;;;1.00;99.90;;;;;;5024190;28;20173;-77
2021/01/24 04:31:25;;;;;;;0.40;0.40;;;1.00;99.90;;;;;;5032669;28;20178;-77
2021/01/24 04:33:51;;;;;;;0.30;0.30;;;1.00;99.90;;;;;;5032842;28;20225;-77
2021/01/24 04:36:17;;;;;;;0.30;0.30;;;1.00;99.90;;;;;;5015081;28;20667;-77
2021/01/24 04:38:43;;;;;;;0.50;0.50;;;1.00;99.90;;;;;;5032221;28;20181;-77
2021/01/24 04:41:10;;;;;;;0.30;0.30;;;1.00;99.90;;;;;;5032474;28;20282;-77
2021/01/24 04:43:36;;;;;;;0.70;0.30;;;0.90;99.90;;;;;;5032108;28;20620;-77
2021/01/24 04:46:02;;;;;;;0.30;0.30;;;0.90;99.90;;;;;;5014976;28;20621;-77
2021/01/24 04:48:30;;;;;;;0.40;0.33;;;0.90;99.90;;;;;;5032466;28;20217;-77
2021/01/24 04:50:57;;;;;;;0.93;0.50;;;0.90;99.90;;;;;;5035742;28;20170;-77
2021/01/24 04:53:23;;;;;;;0.57;0.40;;;0.90;99.90;;;;;;5036107;28;20189;-77
2021/01/24 04:55:50;;;;;;;0.20;0.20;;;0.90;99.90;;;;;;5018328;28;20191;-77
2021/01/24 04:58:16;;;;;;;0.30;0.30;;;0.80;99.90;;;;;;5035736;28;20174;-77
2021/01/24 05:00:42;;;;;;;0.73;0.30;;;0.90;99.90;;;;;;5016438;28;20552;-77
2021/01/24 05:03:08;;;;;;;0.30;0.30;;;0.90;99.90;;;;;;5034572;28;20957;-77
2021/01/24 05:05:34;;;;;;;0.33;0.33;;;0.90;99.90;;;;;;5032992;28;20199;-77
2021/01/24 05:08:01;;;;;;;0.30;0.30;;;0.90;99.90;;;;;;5032497;28;20189;-77
2021/01/24 05:10:29;;;;;;;0.40;0.40;;;0.80;99.90;;;;;;5035296;28;20641;-77
2021/01/24 05:12:56;;;;;;;0.40;0.40;;;0.70;99.90;;;;;;5017315;28;20181;-77
2021/01/24 05:15:22;;;;;;;0.40;0.40;;;0.60;99.90;;;;;;5017549;28;20201;-77
2021/01/24 05:18:02;;;;;;;0.50;0.50;;;0.50;99.90;;;;;;5035391;28;20178;-77
2021/01/24 05:20:30;;;;;;;0.40;0.40;;;0.50;99.90;;;;;;5035697;28;20201;-77
2021/01/24 05:22:57;;;;;;;0.40;0.40;;;0.40;99.90;;;;;;5035359;28;20285;-77
2021/01/24 05:25:28;;;;;;;0.50;0.50;;;0.40;99.90;;;;;;5035787;28;20205;-77
2021/01/24 05:27:54;;;;;;;0.60;0.50;;;0.40;99.90;;;;;;5026915;28;20174;-77
2021/01/24 05:30:30;;;;;;;0.50;0.50;;;0.40;99.90;;;;;;5035490;28;20190;-77
2021/01/24 05:33:00;;;;;;;0.47;0.40;;;0.40;99.90;;;;;;5031435;28;20212;-77
2021/01/24 05:35:27;;;;;;;0.93;0.50;;;0.30;99.90;;;;;;5017640;28;20224;-77
2021/01/24 05:37:53;;;;;;;0.77;0.60;;;0.30;99.90;;;;;;5035031;28;20596;-77
2021/01/24 05:40:19;;;;;;;1.33;0.57;;;0.30;99.90;;;;;;5035119;28;20552;-77
2021/01/24 05:42:46;;;;;;;0.70;0.40;;;0.30;99.90;;;;;;5035216;28;20190;-77
2021/01/24 05:45:14;;;;;;;0.53;0.50;;;0.30;99.90;;;;;;5035003;28;20778;-77
2021/01/24 05:47:47;;;;;;;0.50;0.50;;;0.30;99.90;;;;;;5035012;28;20176;-77
2021/01/24 05:50:16;;;;;;;0.97;0.50;;;0.20;99.90;;;;;;5035130;28;20230;-77
2021/01/24 05:52:47;;;;;;;0.50;0.50;;;0.30;99.90;;;;;;5034961;28;20579;-77
2021/01/24 05:55:34;;;;;;;0.53;0.53;;;0.20;99.90;;;;;;5035179;28;20197;-77
2021/01/24 05:58:20;;;;;;;0.50;0.50;;;0.20;99.90;;;;;;5035131;28;20186;-77
2021/01/24 06:00:48;;;;;;;0.40;0.40;;;0.20;99.90;;;;;;5033906;28;20570;-77
2021/01/24 06:03:15;;;;;;;0.40;0.40;;;0.20;99.90;;;;;;5031887;28;20221;-77
2021/01/24 06:05:42;;;;;;;0.50;0.50;;;0.20;99.90;;;;;;5035891;28;20200;-77
2021/01/24 06:08:09;;;;;;;0.50;0.50;;;0.30;99.90;;;;;;5034401;28;20659;-77
2021/01/24 06:10:36;;;;;;;0.40;0.40;;;0.30;99.90;;;;;;5034950;28;20631;-77
2021/01/24 06:13:04;;;;;;;0.70;0.50;;;0.30;99.90;;;;;;5034285;28;20686;-77
2021/01/24 06:15:31;;;;;;;2.43;1.20;;;0.30;99.90;;;;;;5034440;28;20198;-77
2021/01/24 06:17:58;;;;;;;2.23;1.00;;;0.30;99.90;;;;;;5031005;28;20763;-77
2021/01/24 06:20:49;;;;;;;0.93;0.90;;;0.30;99.90;;;;;;5034502;28;20682;-77
2021/01/24 06:23:28;;;;;;;1.47;0.70;;;0.40;99.90;;;;;;5022325;28;20568;-77
2021/01/24 06:26:02;;;;;;;0.60;0.60;;;0.30;99.90;;;;;;5034235;28;20586;-77
2021/01/24 06:28:33;;;;;;;0.80;0.80;;;0.30;99.90;;;;;;5025429;28;20180;-77
2021/01/24 06:30:59;;;;;;;0.77;0.77;;;0.10;99.90;;;;;;5034265;28;20274;-77
2021/01/24 06:33:25;;;;;;;0.90;0.80;;;0.20;99.90;;;;;;5034179;28;20176;-77
2021/01/24 06:35:57;;;;;;;0.90;0.70;;;0.20;99.90;;;;;;5016584;28;20205;-77
2021/01/24 06:38:35;;;;;;;1.50;1.10;;;0.00;99.90;;;;;;5033765;28;20183;-77
2021/01/24 06:41:03;;;;;;;1.00;0.90;;;0.20;99.90;;;;;;5034461;28;20252;-77
2021/01/24 06:43:36;;;;;;;0.70;0.63;;;0.20;99.90;;;;;;5034298;28;20240;-77
2021/01/24 06:46:04;;;;;;;1.80;0.60;;;0.10;99.90;;;;;;5034326;28;20181;-77
2021/01/24 06:48:40;;;;;;;1.10;1.00;;;0.10;99.90;;;;;;5033908;28;20195;-77
2021/01/24 06:51:32;;;;;;;3.23;0.97;;;0.10;99.90;;;;;;5016243;28;20165;-77
2021/01/24 06:53:58;;;;;;;0.90;0.90;;;0.10;99.90;;;;;;5033882;28;20258;-77
2021/01/24 06:56:34;;;;;;;1.17;0.87;;;0.10;99.90;;;;;;5033747;28;20177;-77
2021/01/24 06:59:00;;;;;;;2.30;0.90;;;0.00;99.90;;;;;;5034027;28;20184;-77
2021/01/24 07:01:33;;;;;;;2.23;1.03;;;0.10;99.90;;;;;;5033954;28;20174;-77
2021/01/24 07:04:17;;;;;;;0.83;0.70;;;0.00;99.90;;;;;;5033599;28;20198;-77
2021/01/24 07:06:48;;;;;;;1.70;1.00;;;-0.10;99.90;;;;;;5015783;28;21007;-77
2021/01/24 07:09:27;;;;;;;3.37;0.80;;;0.00;99.90;;;;;;5034168;28;20176;-77
2021/01/24 07:11:57;;;;;;;1.00;0.90;;;-0.10;99.90;;;;;;5033625;28;20166;-77
2021/01/24 07:14:33;;;;;;;0.80;0.70;;;-0.10;99.90;;;;;;5033373;28;20751;-77
2021/01/24 07:17:09;;;;;;;1.93;0.90;;;0.00;99.90;;;;;;5033169;28;20203;-77
2021/01/24 07:19:39;;;;;;;0.80;0.80;;;-0.10;99.90;;;;;;5014297;28;20172;-77
2021/01/24 07:22:06;;;;;;;1.63;1.07;;;-0.10;99.90;;;;;;5033305;28;20643;-77
2021/01/24 07:24:32;;;;;;;1.40;1.30;;;-0.10;99.90;;;;;;5033516;28;20201;-77
2021/01/24 07:26:58;;;;;;;2.07;1.23;;;-0.10;99.90;;;;;;5032131;28;20173;-77
2021/01/24 07:29:25;;;;;;;1.53;1.33;;;-0.10;99.90;;;;;;5026035;28;20179;-77
2021/01/24 07:31:51;;;;;;;1.50;1.10;;;-0.10;99.90;;;;;;5033279;28;20172;-77
2021/01/24 07:34:22;;;;;;;0.97;0.97;;;0.00;99.90;;;;;;5023313;28;20254;-77
2021/01/24 07:36:49;;;;;;;1.20;1.03;;;-0.40;99.90;;;;;;5019433;28;20173;-77
2021/01/24 07:39:14;;;;;;;3.50;2.40;;;-0.10;99.90;;;;;;5024980;28;20671;-77
2021/01/24 07:41:44;;;;;;;1.63;1.20;;;0.00;99.90;;;;;;5014556;28;20257;-76
2021/01/24 07:44:11;;;;;;;1.30;1.20;;;0.00;99.90;;;;;;5015246;28;20209;-77
2021/01/24 07:46:36;;;;;;;3.03;1.20;;;0.00;99.90;;;;;;4997174;28;20261;-77
2021/01/24 07:49:03;;;;;;;1.10;1.00;;;0.00;99.90;;;;;;5017100;28;20181;-77
2021/01/24 07:51:29;;;;;;;3.80;1.53;;;0.00;99.90;;;;;;5021666;28;20660;-77
2021/01/24 07:53:56;;;;;;;2.77;2.10;;;0.00;99.90;;;;;;5032444;28;20202;-77
2021/01/24 07:56:22;;;;;;;3.43;2.13;;;0.00;99.90;;;;;;5019600;28;20184;-77
2021/01/24 07:58:49;;;;;;;2.77;1.87;;;0.00;99.90;;;;;;5028595;28;20182;-77
2021/01/24 08:01:15;;;;;;;4.80;2.07;;;0.10;99.90;;;;;;5031860;28;20227;-77
2021/01/24 08:03:42;;;;;;;1.70;1.20;;;0.10;99.90;;;;;;5033298;28;20319;-77
2021/01/24 08:06:12;;;;;;;1.70;1.30;;;0.10;99.90;;;;;;5033175;28;20663;-77
2021/01/24 08:08:39;;;;;;;2.33;1.73;;;0.20;99.90;;;;;;5031851;28;20177;-77
2021/01/24 08:11:06;;;;;;;3.77;1.40;;;0.10;99.90;;;;;;5030036;28;20256;-77
2021/01/24 08:13:33;;;;;;;1.97;1.40;;;0.20;99.90;;;;;;4997608;28;20269;-77
2021/01/24 08:16:02;;;;;;;1.80;1.67;;;0.30;99.90;;;;;;5014623;28;20258;-77
2021/01/24 08:18:28;;;;;;;1.30;1.20;;;0.40;99.90;;;;;;5028560;28;20512;-77
2021/01/24 08:20:55;;;;;;;1.40;1.30;;;0.30;99.90;;;;;;5032552;28;20244;-77
2021/01/24 08:23:25;;;;;;;1.57;1.30;;;0.30;99.90;;;;;;5032368;28;20553;-76
2021/01/24 08:25:57;;;;;;;1.67;1.53;;;0.30;99.90;;;;;;5036167;28;20236;-76
2021/01/24 08:28:24;;;;;;;2.53;1.53;;;0.40;99.90;;;;;;5010268;28;20171;-77
2021/01/24 08:30:49;;;;;;;3.60;1.53;;;0.30;99.90;;;;;;5036658;28;20215;-76
2021/01/24 08:33:19;;;;;;;2.50;1.70;;;0.40;99.90;;;;;;5036590;28;20543;-77
2021/01/24 08:35:47;;;;;;;1.30;1.20;;;0.40;99.90;;;;;;5036524;28;20202;-77
2021/01/24 08:38:13;;;;;;;2.77;1.43;;;0.50;99.90;;;;;;5023924;28;20239;-77
2021/01/24 08:40:41;;;;;;;1.70;1.47;;;0.50;99.90;;;;;;5036330;28;20545;-77
2021/01/24 08:43:07;;;;;;;1.47;1.30;;;0.50;99.90;;;;;;5018620;28;20671;-77
2021/01/24 08:45:34;;;;;;;1.60;1.37;;;0.50;99.90;;;;;;5016637;28;20263;-76
2021/01/24 08:48:03;;;;;;;1.93;1.50;;;0.50;99.90;;;;;;5032917;28;20268;-76
2021/01/24 08:50:34;;;;;;;5.70;1.93;;;0.50;99.90;;;;;;5017273;28;20210;-76
2021/01/24 08:53:02;;;;;;;2.43;1.57;;;0.50;99.90;;;;;;5028065;28;20257;-77
2021/01/24 08:55:28;;;;;;;1.97;1.27;;;0.50;99.90;;;;;;5016460;28;20286;-77
2021/01/24 08:57:55;;;;;;;3.53;1.73;;;0.70;99.90;;;;;;5028325;28;20281;-76
2021/01/24 09:00:22;;;;;;;4.27;2.60;;;0.60;99.90;;;;;;5023751;28;20618;-76
2021/01/24 09:02:48;;;;;;;2.40;1.70;;;0.70;99.90;;;;;;5017484;28;20197;-75
2021/01/24 09:05:28;;;;;;;2.27;1.47;;;0.70;99.90;;;;;;5025014;28;20256;-76
2021/01/24 09:07:54;;;;;;;2.83;1.70;;;0.70;99.90;;;;;;5016225;28;20588;-75
2021/01/24 09:10:21;;;;;;;2.17;1.30;;;0.70;99.90;;;;;;5007916;28;20178;-76
2021/01/24 09:12:50;;;;;;;1.90;1.50;;;0.80;99.90;;;;;;5023958;28;20174;-76
2021/01/24 09:15:17;;;;;;;2.47;1.33;;;0.80;99.90;;;;;;5013975;28;20229;-76
2021/01/24 09:17:43;;;;;;;1.90;1.40;;;0.90;99.90;;;;;;5026203;28;20254;-76
2021/01/24 09:20:10;;;;;;;3.27;1.10;;;0.90;99.90;;;;;;5031865;28;20185;-76
2021/01/24 09:22:35;;;;;;;2.03;1.63;;;0.90;99.90;;;;;;5033895;28;20202;-75
2021/01/24 09:25:04;;;;;;;1.40;1.30;;;0.80;99.90;;;;;;5034462;28;20191;-76
2021/01/24 09:27:30;;;;;;;2.23;1.57;;;0.90;99.90;;;;;;5025222;28;20174;-76
2021/01/24 09:29:55;;;;;;;2.17;1.40;;;1.00;99.90;;;;;;5031793;28;20657;-76
2021/01/24 09:32:21;;;;;;;2.93;1.40;;;1.10;99.90;;;;;;5034778;28;20174;-76
2021/01/24 09:34:47;;;;;;;1.73;1.40;;;1.10;99.90;;;;;;5017570;28;20205;-76
2021/01/24 09:37:13;;;;;;;1.83;1.30;;;1.10;99.90;;;;;;5035408;28;20181;-76
2021/01/24 09:39:39;;;;;;;3.40;1.40;;;1.20;99.90;;;;;;5035885;28;20182;-76
2021/01/24 09:42:05;;;;;;;1.60;1.50;;;1.20;99.90;;;;;;5017431;28;20257;-76
2021/01/24 09:44:32;;;;;;;2.53;1.10;;;1.20;99.90;;;;;;5017197;28;20218;-75
2021/01/24 09:46:58;;;;;;;1.87;1.40;;;1.20;99.90;;;;;;5052543;22;20676;-78
2021/01/24 09:49:24;;;;;;;1.90;1.17;;;1.20;99.90;;;;;;5040107;28;20186;-79
2021/01/24 09:51:50;;;;;;;1.20;1.00;;;1.50;99.90;;;;;;5039592;28;20257;-76
2021/01/24 09:54:17;;;;;;;2.67;1.00;;;1.30;99.90;;;;;;5035389;28;20214;-78
2021/01/24 09:56:44;;;;;;;1.30;1.17;;;1.30;99.90;;;;;;5031284;28;20654;-77
2021/01/24 09:59:11;;;;;;;2.07;1.20;;;1.70;99.90;;;;;;5025626;28;20199;-78
2021/01/24 10:01:37;;;;;;;2.77;1.40;;;1.40;99.90;;;;;;5023503;28;20170;-78
2021/01/24 10:04:04;;;;;;;1.73;1.40;;;1.40;99.90;;;;;;5022276;28;20190;-78
2021/01/24 10:06:29;;;;;;;2.13;1.20;;;1.50;99.90;;;;;;5020601;28;20195;-78
2021/01/24 10:08:55;;;;;;;2.40;1.20;;;1.50;99.90;;;;;;5028660;28;20188;-78
2021/01/24 10:11:21;;;;;;;1.47;1.00;;;1.60;99.90;;;;;;5023929;28;20175;-78
2021/01/24 10:13:48;;;;;;;1.83;1.10;;;1.60;99.90;;;;;;5024517;28;20182;-77
2021/01/24 10:16:14;;;;;;;1.83;1.30;;;1.60;99.90;;;;;;5021173;28;20673;-79
2021/01/24 10:18:40;;;;;;;1.73;1.13;;;1.80;99.90;;;;;;5018270;28;20266;-79
2021/01/24 10:21:07;;;;;;;1.33;0.90;;;1.70;99.90;;;;;;5018546;28;20179;-79
2021/01/24 10:23:33;;;;;;;0.97;0.97;;;1.90;99.90;;;;;;5016242;28;20207;-78
2021/01/24 10:26:00;;;;;;;2.90;1.77;;;2.50;99.90;;;;;;5021971;28;20179;-76
2021/01/24 10:28:26;;;;;;;1.40;1.30;;;2.00;99.90;;;;;;5019760;28;20182;-78
2021/01/24 10:30:53;;;;;;;2.47;1.30;;;1.90;99.90;;;;;;5014212;28;20183;-79
2021/01/24 10:33:20;;;;;;;1.87;1.30;;;2.40;99.90;;;;;;5017344;28;20196;-78
2021/01/24 10:35:46;;;;;;;2.90;1.77;;;2.00;99.90;;;;;;5013949;28;20253;-78
2021/01/24 10:38:12;;;;;;;1.63;1.47;;;2.10;99.90;;;;;;5029081;28;20195;-78
2021/01/24 10:40:38;;;;;;;1.57;1.37;;;2.10;99.90;;;;;;5020996;28;20175;-79
2021/01/24 10:43:05;;;;;;;1.20;1.10;;;2.00;99.90;;;;;;5020678;28;20282;-77
2021/01/24 10:45:31;;;;;;;1.93;1.50;;;1.90;99.90;;;;;;5020672;28;20179;-79
2021/01/24 10:48:01;;;;;;;2.10;1.57;;;2.10;99.90;;;;;;5019789;28;20211;-78
2021/01/24 10:50:28;;;;;;;2.00;1.70;;;2.30;99.90;;;;;;5019726;28;20658;-79
2021/01/24 10:52:54;;;;;;;4.17;1.63;;;2.20;99.90;;;;;;5021117;28;20175;-78
2021/01/24 10:55:20;;;;;;;1.00;0.90;;;2.20;99.90;;;;;;5019780;28;20186;-78
2021/01/24 10:57:46;;;;;;;1.57;1.40;;;2.00;99.90;;;;;;5021336;28;20195;-79
2021/01/24 11:00:12;;;;;;;1.53;1.30;;;2.10;99.90;;;;;;5020014;28;20190;-78
2021/01/24 11:02:38;;;;;;;2.37;1.20;;;2.10;99.90;;;;;;5017419;28;20585;-78
2021/01/24 11:05:05;;;;;;;1.77;1.40;;;2.20;99.90;;;;;;5016437;28;20179;-77
2021/01/24 11:07:31;;;;;;;2.57;1.33;;;2.20;99.90;;;;;;5018643;28;20191;-79
2021/01/24 11:09:57;;;;;;;1.90;1.20;;;2.30;99.90;;;;;;5018420;28;20226;-78
2021/01/24 11:12:23;;;;;;;3.00;1.20;;;2.90;99.90;;;;;;5020957;28;20179;-78
2021/01/24 11:14:50;;;;;;;1.97;1.57;;;2.40;99.90;;;;;;5019690;28;20179;-78
2021/01/24 11:17:17;;;;;;;2.47;1.40;;;2.40;99.90;;;;;;5020332;28;20229;-78
2021/01/24 11:19:44;;;;;;;1.00;0.90;;;2.30;99.90;;;;;;5019292;28;20175;-77
2021/01/24 11:22:10;;;;;;;1.83;1.20;;;2.30;99.90;;;;;;5018755;28;20179;-77
2021/01/24 11:24:36;;;;;;;2.13;1.30;;;2.20;99.90;;;;;;5016491;28;20182;-77
2021/01/24 11:27:05;;;;;;;1.57;1.17;;;2.80;99.90;;;;;;5021586;28;20195;-79
2021/01/24 11:29:31;;;;;;;2.17;1.63;;;2.20;99.90;;;;;;5018724;28;20313;-78
2021/01/24 11:31:57;;;;;;;2.13;1.00;;;2.30;99.90;;;;;;5022411;28;20711;-78
2021/01/24 11:34:23;;;;;;;3.23;1.03;;;2.10;99.90;;;;;;5019061;28;20243;-78
2021/01/24 11:36:49;;;;;;;3.60;1.30;;;2.10;99.90;;;;;;5017823;28;20264;-78
2021/01/24 11:39:15;;;;;;;1.73;1.10;;;2.20;99.90;;;;;;5017934;28;20620;-79
2021/01/24 11:41:41;;;;;;;2.13;1.40;;;2.30;99.90;;;;;;5019005;28;20187;-78
2021/01/24 11:44:07;;;;;;;3.53;1.50;;;2.40;99.90;;;;;;5019332;28;20217;-78
2021/01/24 11:46:33;;;;;;;2.37;1.40;;;2.40;99.90;;;;;;5017752;28;20289;-79
2021/01/24 11:48:59;;;;;;;1.40;1.10;;;2.50;99.90;;;;;;5018472;28;20190;-77
2021/01/24 11:51:25;;;;;;;1.33;1.20;;;2.50;99.90;;;;;;5017803;28;20191;-80
2021/01/24 11:53:51;;;;;;;1.97;1.10;;;2.50;99.90;;;;;;5013627;28;20876;-76
2021/01/24 11:56:17;;;;;;;3.73;1.33;;;2.70;99.90;;;;;;5013706;28;20203;-76
2021/01/24 11:58:43;;;;;;;2.33;1.40;;;2.90;99.90;;;;;;5009889;28;20183;-77
2021/01/24 12:01:09;;;;;;;2.63;1.30;;;3.00;99.90;;;;;;5015489;28;20216;-76
2021/01/24 12:03:34;;;;;;;2.50;1.33;;;2.90;99.90;;;;;;5015356;28;20297;-77
2021/01/24 12:06:00;;;;;;;2.00;1.10;;;3.00;99.90;;;;;;5010421;28;20773;-77
2021/01/24 12:08:26;;;;;;;1.67;1.07;;;3.10;99.90;;;;;;5022113;28;20584;-75
2021/01/24 12:10:52;;;;;;;1.93;1.10;;;3.10;99.90;;;;;;5019717;28;20178;-76
2021/01/24 12:13:18;;;;;;;3.10;1.20;;;3.00;99.90;;;;;;5023544;28;20657;-76
2021/01/24 12:15:44;;;;;;;2.17;1.30;;;2.90;99.90;;;;;;5016669;28;20206;-75
2021/01/24 12:18:10;;;;;;;1.63;1.20;;;2.80;99.90;;;;;;5019246;28;20202;-76
2021/01/24 12:20:36;;;;;;;2.10;1.20;;;2.90;99.90;;;;;;5020293;28;20183;-76
2021/01/24 12:23:02;;;;;;;3.43;1.30;;;2.90;99.90;;;;;;5017295;28;20265;-75
2021/01/24 12:25:28;;;;;;;2.77;1.10;;;3.10;99.90;;;;;;5016857;28;20187;-76
2021/01/24 12:27:54;;;;;;;1.83;1.30;;;3.00;99.90;;;;;;5016607;28;20575;-76
2021/01/24 12:30:21;;;;;;;1.40;1.10;;;2.90;99.90;;;;;;5015088;28;20199;-76
2021/01/24 12:32:46;;;;;;;2.10;1.20;;;2.90;99.90;;;;;;5017725;28;20175;-77
2021/01/24 12:35:13;;;;;;;1.67;1.10;;;2.80;99.90;;;;;;5016173;28;20219;-74
2021/01/24 12:37:39;;;;;;;1.90;0.97;;;2.80;99.90;;;;;;5020138;28;20229;-77
2021/01/24 12:40:06;;;;;;;3.13;1.10;;;2.90;99.90;;;;;;5020318;28;20661;-75
2021/01/24 12:42:32;;;;;;;1.80;1.20;;;3.00;99.90;;;;;;5018127;28;20208;-76
2021/01/24 12:44:58;;;;;;;3.73;1.53;;;2.90;99.90;;;;;;5020796;28;20179;-75
2021/01/24 12:47:24;;;;;;;2.77;1.60;;;2.90;99.90;;;;;;5016152;28;20276;-76
2021/01/24 12:49:50;;;;;;;1.40;1.10;;;3.00;99.90;;;;;;5018634;28;20681;-76
2021/01/24 12:52:15;;;;;;;3.70;1.20;;;2.90;99.90;;;;;;5004473;28;20314;-76
2021/01/24 12:54:41;;;;;;;2.63;1.57;;;2.80;99.90;;;;;;5021277;28;20550;-75
2021/01/24 12:57:07;;;;;;;1.37;1.13;;;2.70;99.90;;;;;;5026339;28;20277;-76
2021/01/24 12:59:33;;;;;;;1.43;0.97;;;2.70;99.90;;;;;;5019609;28;20227;-73
2021/01/24 13:02:03;;;;;;;1.73;1.30;;;2.70;99.90;;;;;;5024271;28;20175;-75